Time;durP1;ratioP1;P1;durP2;ratioP2;P2;SDS_P1;SDS_P2;PMS_P1;PMS_P2;Temp;Humidity;BMP_temperature;BMP_pressure;BME280_temperature;BME280_humidity;BME280_pressure;Samples;Min_cycle;Max_cycle;Signal;HPM_P1;HPM_P2
2021/06/06 00:01:39;;;;;;;25.17;17.77;;;13.70;99.90;;;;;;5080871;28;20172;-67
2021/06/06 00:04:11;;;;;;;25.70;17.17;;;13.70;99.90;;;;;;5079111;28;20273;-67
2021/06/06 00:06:39;;;;;;;25.67;18.53;;;13.70;99.90;;;;;;5070309;28;20190;-67
2021/06/06 00:09:11;;;;;;;23.50;17.37;;;13.70;99.90;;;;;;5072675;28;20424;-67
2021/06/06 00:11:43;;;;;;;26.70;18.37;;;13.70;99.90;;;;;;5081864;28;20179;-67
2021/06/06 00:14:13;;;;;;;32.40;19.37;;;13.70;99.90;;;;;;5074408;28;20215;-67
2021/06/06 00:16:43;;;;;;;27.77;19.13;;;13.70;99.90;;;;;;5077987;28;20191;-67
2021/06/06 00:19:12;;;;;;;26.20;18.37;;;13.70;99.90;;;;;;5080266;28;20187;-67
2021/06/06 00:21:41;;;;;;;26.63;19.17;;;13.70;99.90;;;;;;5074630;28;20196;-67
2021/06/06 00:24:17;;;;;;;31.03;20.80;;;13.70;99.90;;;;;;5080587;28;20188;-67
2021/06/06 00:26:46;;;;;;;32.73;19.27;;;13.60;99.90;;;;;;5081736;28;20187;-67
2021/06/06 00:29:14;;;;;;;28.93;19.63;;;13.60;99.90;;;;;;5067635;28;20180;-67
2021/06/06 00:31:42;;;;;;;28.27;19.60;;;13.60;99.90;;;;;;5081665;28;20176;-67
2021/06/06 00:34:10;;;;;;;34.20;21.20;;;13.60;99.90;;;;;;5076481;28;20287;-67
2021/06/06 00:36:38;;;;;;;32.20;20.97;;;13.60;99.90;;;;;;5054622;28;20187;-67
2021/06/06 00:39:07;;;;;;;32.33;19.67;;;13.60;99.90;;;;;;5082383;28;20188;-67
2021/06/06 00:41:39;;;;;;;31.30;20.70;;;13.60;99.90;;;;;;5082137;28;20184;-67
2021/06/06 00:44:09;;;;;;;30.87;20.77;;;13.60;99.90;;;;;;5079660;28;20184;-67
2021/06/06 00:46:38;;;;;;;34.73;21.83;;;13.60;99.90;;;;;;5077517;28;20213;-66
2021/06/06 00:49:07;;;;;;;35.40;23.03;;;13.60;99.90;;;;;;5082198;28;20192;-67
2021/06/06 00:51:41;;;;;;;31.27;20.80;;;13.50;99.90;;;;;;5081614;28;20180;-67
2021/06/06 00:54:13;;;;;;;34.97;24.57;;;13.50;99.90;;;;;;5085364;28;20235;-67
2021/06/06 00:56:46;;;;;;;36.40;24.43;;;13.50;99.90;;;;;;5067934;28;20199;-67
2021/06/06 00:59:18;;;;;;;41.17;25.83;;;13.50;99.90;;;;;;5067872;28;20451;-67
2021/06/06 01:02:11;;;;;;;43.10;26.63;;;13.50;99.90;;;;;;5076749;28;20200;-67
2021/06/06 01:04:41;;;;;;;44.40;26.10;;;13.40;99.90;;;;;;5084486;28;20316;-62
2021/06/06 01:07:11;;;;;;;37.00;26.10;;;13.40;99.90;;;;;;5083557;28;20191;-67
2021/06/06 01:09:39;;;;;;;37.53;25.20;;;13.40;99.90;;;;;;5079897;28;20180;-67
2021/06/06 01:12:14;;;;;;;42.80;25.67;;;13.30;99.90;;;;;;5077085;28;20184;-67
2021/06/06 01:15:14;;;;;;;43.83;26.30;;;13.20;99.90;;;;;;5075968;28;20215;-67
2021/06/06 01:17:47;;;;;;;41.87;27.67;;;13.20;99.90;;;;;;5082979;28;20210;-67
2021/06/06 01:20:22;;;;;;;44.83;27.13;;;13.10;99.90;;;;;;5074368;28;20203;-67
2021/06/06 01:22:54;;;;;;;42.53;26.47;;;13.00;99.90;;;;;;5084519;28;20176;-67
2021/06/06 01:25:26;;;;;;;43.83;28.70;;;13.00;99.90;;;;;;5084523;28;20184;-67
2021/06/06 01:28:04;;;;;;;43.20;28.33;;;12.90;99.90;;;;;;5085134;28;20298;-67
2021/06/06 01:30:36;;;;;;;45.80;27.67;;;12.80;99.90;;;;;;5077837;28;20176;-67
2021/06/06 01:33:08;;;;;;;47.80;27.93;;;12.80;99.90;;;;;;5084168;28;20180;-67
2021/06/06 01:35:46;;;;;;;47.47;29.83;;;12.80;99.90;;;;;;5073044;28;20200;-64
2021/06/06 01:38:17;;;;;;;51.27;30.73;;;12.70;99.90;;;;;;5084502;28;20176;-67
2021/06/06 01:40:51;;;;;;;51.10;32.70;;;12.70;99.90;;;;;;5073692;28;20238;-67
2021/06/06 01:43:23;;;;;;;53.77;32.70;;;12.70;99.90;;;;;;5079161;28;20184;-67
2021/06/06 01:45:55;;;;;;;51.77;32.40;;;12.70;99.90;;;;;;5083597;28;20184;-67
2021/06/06 01:48:22;;;;;;;58.80;33.30;;;12.70;99.90;;;;;;5083922;28;20238;-68
2021/06/06 01:50:57;;;;;;;48.53;31.37;;;12.70;99.90;;;;;;5081060;28;20183;-67
2021/06/06 01:53:26;;;;;;;47.93;30.70;;;12.70;99.90;;;;;;5083976;28;20318;-67
2021/06/06 01:55:58;;;;;;;50.40;30.47;;;12.70;99.90;;;;;;5078588;28;20457;-67
2021/06/06 01:58:27;;;;;;;55.30;30.80;;;12.60;99.90;;;;;;5083553;28;20436;-67
2021/06/06 02:00:59;;;;;;;53.53;31.73;;;12.50;99.90;;;;;;5077132;28;20180;-67
2021/06/06 02:03:27;;;;;;;51.07;31.77;;;12.50;99.90;;;;;;5082938;28;20422;-67
2021/06/06 02:05:57;;;;;;;49.00;31.30;;;12.50;99.90;;;;;;5083488;28;20207;-67
2021/06/06 02:08:30;;;;;;;49.23;31.13;;;12.40;99.90;;;;;;5065929;28;20260;-67
2021/06/06 02:11:01;;;;;;;53.30;31.07;;;12.40;99.90;;;;;;5061188;28;20192;-67
2021/06/06 02:13:37;;;;;;;52.10;32.33;;;12.40;99.90;;;;;;5084368;28;20192;-67
2021/06/06 02:16:06;;;;;;;50.93;31.03;;;12.30;99.90;;;;;;5081663;28;20479;-67
2021/06/06 02:18:34;;;;;;;54.03;33.67;;;12.20;99.90;;;;;;5083389;28;20186;-67
2021/06/06 02:21:03;;;;;;;57.77;32.83;;;12.10;99.90;;;;;;5070710;28;20172;-67
2021/06/06 02:23:35;;;;;;;51.00;32.73;;;12.10;99.90;;;;;;5066249;28;20189;-67
2021/06/06 02:26:08;;;;;;;58.00;32.90;;;12.00;99.90;;;;;;5076643;28;20205;-67
2021/06/06 02:28:41;;;;;;;58.17;33.70;;;11.90;99.90;;;;;;5083813;28;20204;-67
2021/06/06 02:31:16;;;;;;;62.50;35.60;;;11.90;99.90;;;;;;5054681;28;20180;-67
2021/06/06 02:33:52;;;;;;;59.50;34.27;;;11.90;99.90;;;;;;5079532;28;20172;-67
2021/06/06 02:36:22;;;;;;;56.60;33.73;;;11.80;99.90;;;;;;5076353;28;20432;-67
2021/06/06 02:38:55;;;;;;;55.40;32.63;;;11.80;99.90;;;;;;5081051;28;20337;-67
2021/06/06 02:41:27;;;;;;;52.53;32.30;;;11.70;99.90;;;;;;5081908;28;20203;-67
2021/06/06 02:43:59;;;;;;;58.43;33.37;;;11.60;99.90;;;;;;5077933;28;20255;-67
2021/06/06 02:46:29;;;;;;;54.07;32.40;;;11.60;99.90;;;;;;5077428;28;20227;-66
2021/06/06 02:49:03;;;;;;;55.90;34.33;;;11.50;99.90;;;;;;5082090;28;20180;-67
2021/06/06 02:51:38;;;;;;;55.67;33.43;;;11.50;99.90;;;;;;5078663;28;20188;-67
2021/06/06 02:54:10;;;;;;;58.93;34.70;;;11.40;99.90;;;;;;5081616;28;20283;-67
2021/06/06 02:56:48;;;;;;;56.77;33.73;;;11.40;99.90;;;;;;5080407;28;20199;-67
2021/06/06 02:59:20;;;;;;;56.13;33.40;;;11.30;99.90;;;;;;5074915;28;20206;-67
2021/06/06 03:01:52;;;;;;;57.03;34.10;;;11.30;99.90;;;;;;5078718;28;20243;-67
2021/06/06 03:04:25;;;;;;;59.07;32.57;;;11.20;99.90;;;;;;5082697;28;20208;-67
2021/06/06 03:06:58;;;;;;;59.67;36.30;;;11.20;99.90;;;;;;5073874;28;20180;-67
2021/06/06 03:09:26;;;;;;;69.30;36.77;;;11.20;99.90;;;;;;5082005;28;20176;-67
2021/06/06 03:12:00;;;;;;;72.57;39.83;;;11.10;99.90;;;;;;5073903;28;20242;-67
2021/06/06 03:14:30;;;;;;;73.27;40.57;;;11.20;99.90;;;;;;5079887;28;20231;-67
2021/06/06 03:17:03;;;;;;;74.73;39.80;;;11.20;99.90;;;;;;5082970;28;20234;-67
2021/06/06 03:19:35;;;;;;;65.43;36.67;;;11.20;99.90;;;;;;5082185;28;20524;-67
2021/06/06 03:22:05;;;;;;;65.10;36.30;;;11.10;99.90;;;;;;5062470;28;20175;-67
2021/06/06 03:24:37;;;;;;;70.03;37.40;;;11.10;99.90;;;;;;5080343;28;20281;-67
2021/06/06 03:27:08;;;;;;;72.17;38.57;;;11.10;99.90;;;;;;5072935;28;20187;-66
2021/06/06 03:29:50;;;;;;;66.17;37.00;;;11.10;99.90;;;;;;5080828;28;20204;-66
2021/06/06 03:32:21;;;;;;;71.47;37.37;;;11.00;99.90;;;;;;5080283;28;20371;-67
2021/06/06 03:34:50;;;;;;;68.67;35.40;;;11.00;99.90;;;;;;5082219;28;20223;-66
2021/06/06 03:37:18;;;;;;;68.90;36.23;;;11.00;99.90;;;;;;5076819;28;20203;-66
2021/06/06 03:39:47;;;;;;;65.40;35.83;;;11.00;99.90;;;;;;5080765;28;20191;-66
2021/06/06 03:42:17;;;;;;;66.63;36.20;;;11.00;99.90;;;;;;5080251;28;20226;-66
2021/06/06 03:44:45;;;;;;;70.53;36.40;;;11.00;99.90;;;;;;5081365;28;20180;-61
2021/06/06 03:47:13;;;;;;;67.23;35.30;;;11.00;99.90;;;;;;5081391;28;20184;-66
2021/06/06 03:49:41;;;;;;;73.87;37.70;;;10.90;99.90;;;;;;5081485;28;20187;-66
2021/06/06 03:52:09;;;;;;;67.93;36.33;;;11.00;99.90;;;;;;5070042;28;20245;-67
2021/06/06 03:54:37;;;;;;;65.87;35.00;;;10.90;99.90;;;;;;5078291;28;20299;-66
2021/06/06 03:57:06;;;;;;;60.13;34.97;;;10.90;99.90;;;;;;5059142;28;20418;-66
2021/06/06 03:59:35;;;;;;;63.93;34.53;;;10.90;99.90;;;;;;5079488;28;20177;-66
2021/06/06 04:02:04;;;;;;;56.47;33.47;;;11.00;99.90;;;;;;5075822;28;20235;-66
2021/06/06 04:04:35;;;;;;;65.57;34.17;;;11.00;99.90;;;;;;5081601;28;20424;-66
2021/06/06 04:07:03;;;;;;;65.97;34.27;;;11.00;99.90;;;;;;5077918;28;20314;-66
2021/06/06 04:09:31;;;;;;;64.63;35.13;;;11.00;99.90;;;;;;5078982;28;20176;-66
2021/06/06 04:11:59;;;;;;;67.67;34.53;;;10.90;99.90;;;;;;5080550;28;20200;-66
2021/06/06 04:14:27;;;;;;;66.63;34.70;;;10.90;99.90;;;;;;5079294;28;20255;-66
2021/06/06 04:16:56;;;;;;;71.87;36.67;;;10.90;99.90;;;;;;5080964;28;20183;-66
2021/06/06 04:19:24;;;;;;;70.97;36.00;;;10.90;99.90;;;;;;5082288;28;20432;-66
2021/06/06 04:21:52;;;;;;;69.23;35.37;;;11.00;99.90;;;;;;5082429;28;20172;-66
2021/06/06 04:24:20;;;;;;;66.10;34.70;;;11.00;99.90;;;;;;5080902;28;20421;-66
2021/06/06 04:26:49;;;;;;;66.20;36.10;;;11.00;99.90;;;;;;5084683;28;20188;-66
2021/06/06 04:29:16;;;;;;;69.10;35.27;;;10.90;99.90;;;;;;5078922;28;20187;-66
2021/06/06 04:31:45;;;;;;;68.73;36.43;;;11.00;99.90;;;;;;5084501;28;20176;-66
2021/06/06 04:34:14;;;;;;;67.10;35.80;;;11.00;99.90;;;;;;5075935;28;20203;-66
2021/06/06 04:36:47;;;;;;;67.27;34.80;;;11.00;99.90;;;;;;5072411;28;20219;-66
2021/06/06 04:39:15;;;;;;;63.93;34.53;;;11.10;99.90;;;;;;5078233;28;20184;-66
2021/06/06 04:41:43;;;;;;;76.03;36.77;;;11.10;99.90;;;;;;5085128;28;20188;-66
2021/06/06 04:44:10;;;;;;;64.73;35.43;;;11.20;99.90;;;;;;5065769;28;20361;-66
2021/06/06 04:46:38;;;;;;;72.37;36.97;;;11.30;99.90;;;;;;5082433;28;20322;-66
2021/06/06 04:49:06;;;;;;;69.80;35.60;;;11.30;99.90;;;;;;5067742;28;20168;-66
2021/06/06 04:51:35;;;;;;;66.90;35.63;;;11.40;99.90;;;;;;5064292;28;20173;-66
2021/06/06 04:54:04;;;;;;;66.37;35.23;;;11.50;99.90;;;;;;5074909;28;20219;-66
2021/06/06 04:56:32;;;;;;;68.37;36.30;;;11.60;99.90;;;;;;5085605;28;20204;-66
2021/06/06 04:59:00;;;;;;;74.67;37.20;;;11.60;99.90;;;;;;5076414;28;20433;-66
2021/06/06 05:01:31;;;;;;;65.70;36.70;;;11.70;99.90;;;;;;5082556;28;20184;-68
2021/06/06 05:03:59;;;;;;;65.70;35.50;;;11.80;99.90;;;;;;5084390;28;20188;-66
2021/06/06 05:06:27;;;;;;;61.70;34.40;;;11.90;99.90;;;;;;5084821;28;20187;-66
2021/06/06 05:08:57;;;;;;;63.40;34.93;;;12.00;99.90;;;;;;5075155;28;20180;-66
2021/06/06 05:11:25;;;;;;;67.00;37.67;;;12.10;99.90;;;;;;5082880;28;20180;-66
2021/06/06 05:13:53;;;;;;;65.87;37.00;;;12.10;99.90;;;;;;5073910;28;20200;-66
2021/06/06 05:16:21;;;;;;;61.53;34.67;;;12.30;99.90;;;;;;5077484;28;20395;-66
2021/06/06 05:18:50;;;;;;;63.90;35.00;;;12.40;99.90;;;;;;5082709;28;20476;-66
2021/06/06 05:21:17;;;;;;;61.27;36.00;;;12.50;99.90;;;;;;5084045;28;20364;-66
2021/06/06 05:23:46;;;;;;;61.23;35.43;;;12.50;99.90;;;;;;5066311;28;20413;-66
2021/06/06 05:26:15;;;;;;;62.30;36.37;;;12.70;99.90;;;;;;5085076;28;20179;-67
2021/06/06 05:28:44;;;;;;;55.10;32.17;;;12.80;99.90;;;;;;5079041;28;20185;-66
2021/06/06 05:31:13;;;;;;;60.57;34.70;;;12.80;99.90;;;;;;5080183;28;20176;-66
2021/06/06 05:33:41;;;;;;;56.00;33.60;;;12.90;99.90;;;;;;5080075;28;20422;-66
2021/06/06 05:36:09;;;;;;;58.67;33.27;;;13.10;99.90;;;;;;5068396;28;20219;-66
2021/06/06 05:38:38;;;;;;;55.87;32.83;;;13.20;99.90;;;;;;5077931;28;20183;-66
2021/06/06 05:41:07;;;;;;;55.70;32.27;;;13.20;99.90;;;;;;5083602;28;20180;-67
2021/06/06 05:43:38;;;;;;;54.00;31.73;;;13.30;99.90;;;;;;5057636;28;20176;-66
2021/06/06 05:46:10;;;;;;;55.00;32.30;;;13.50;99.90;;;;;;5084994;28;20282;-66
2021/06/06 05:48:38;;;;;;;56.73;31.67;;;13.60;99.90;;;;;;5079626;28;20176;-66
2021/06/06 05:51:06;;;;;;;56.67;31.87;;;13.60;99.90;;;;;;5065836;28;20184;-67
2021/06/06 05:53:35;;;;;;;51.57;29.93;;;13.70;99.90;;;;;;5079984;28;20461;-66
2021/06/06 05:56:04;;;;;;;46.57;27.33;;;13.70;99.90;;;;;;5082767;28;20199;-67
2021/06/06 05:58:33;;;;;;;41.60;26.80;;;13.90;99.90;;;;;;5080792;28;20184;-66
2021/06/06 06:01:03;;;;;;;43.13;26.53;;;14.00;99.90;;;;;;5082623;28;20183;-66
2021/06/06 06:03:31;;;;;;;44.63;25.90;;;14.10;99.90;;;;;;5081181;28;20276;-66
2021/06/06 06:05:59;;;;;;;34.27;21.20;;;14.20;99.90;;;;;;5080301;28;20188;-66
2021/06/06 06:08:31;;;;;;;28.80;19.13;;;14.20;99.90;;;;;;5064805;28;20225;-66
2021/06/06 06:11:04;;;;;;;26.53;18.03;;;14.30;99.90;;;;;;5084622;28;20176;-66
2021/06/06 06:13:33;;;;;;;28.30;17.00;;;14.30;99.90;;;;;;5093197;28;20437;-66
2021/06/06 06:16:05;;;;;;;26.87;18.43;;;14.40;99.90;;;;;;5080642;28;20208;-66
2021/06/06 06:18:34;;;;;;;32.93;20.07;;;14.40;99.90;;;;;;5082028;28;20188;-67
2021/06/06 06:21:04;;;;;;;32.20;20.93;;;14.40;99.90;;;;;;5076351;28;20187;-66
2021/06/06 06:23:53;;;;;;;35.17;20.53;;;14.60;99.90;;;;;;5057064;28;20216;-66
2021/06/06 06:26:22;;;;;;;28.70;19.40;;;14.80;99.90;;;;;;5078260;28;20203;-67
2021/06/06 06:28:50;;;;;;;35.13;20.40;;;14.90;99.90;;;;;;5079853;28;20196;-67
2021/06/06 06:31:20;;;;;;;29.67;18.83;;;15.00;99.90;;;;;;5083998;28;20230;-67
2021/06/06 06:33:48;;;;;;;31.33;19.33;;;14.90;99.90;;;;;;5080581;28;20207;-67
2021/06/06 06:36:18;;;;;;;28.47;19.10;;;14.90;99.90;;;;;;5070847;28;20211;-67
2021/06/06 06:38:47;;;;;;;29.77;19.03;;;15.10;99.90;;;;;;5083785;28;20230;-67
2021/06/06 06:41:15;;;;;;;28.23;18.00;;;15.40;99.90;;;;;;5073722;28;20188;-67
2021/06/06 06:43:42;;;;;;;26.63;17.47;;;15.70;99.90;;;;;;5082685;28;20188;-67
2021/06/06 06:46:10;;;;;;;23.73;17.00;;;15.80;99.90;;;;;;5082791;28;20188;-67
2021/06/06 06:48:40;;;;;;;24.33;16.70;;;16.00;99.90;;;;;;5082679;28;20180;-66
2021/06/06 06:51:08;;;;;;;26.30;16.63;;;16.10;99.90;;;;;;5075592;28;20181;-67
2021/06/06 06:53:40;;;;;;;26.83;16.17;;;16.20;99.90;;;;;;5064459;28;20307;-67
2021/06/06 06:56:08;;;;;;;23.60;15.07;;;16.40;99.90;;;;;;5076711;28;20360;-66
2021/06/06 06:58:36;;;;;;;19.27;14.40;;;16.50;99.90;;;;;;5063313;28;20222;-67
2021/06/06 07:01:04;;;;;;;21.90;15.03;;;16.70;99.90;;;;;;5080701;28;20183;-67
2021/06/06 07:03:34;;;;;;;22.30;15.60;;;16.80;99.90;;;;;;5080148;28;20421;-66
2021/06/06 07:06:06;;;;;;;22.30;14.50;;;16.60;99.90;;;;;;5071489;28;20173;-67
2021/06/06 07:08:39;;;;;;;21.13;14.50;;;16.70;99.90;;;;;;5082691;28;20184;-67
2021/06/06 07:11:09;;;;;;;25.03;17.00;;;16.70;99.90;;;;;;5081497;28;20183;-67
2021/06/06 07:13:38;;;;;;;25.13;17.07;;;16.90;99.90;;;;;;5079077;28;20228;-67
2021/06/06 07:16:09;;;;;;;22.67;15.97;;;17.00;99.90;;;;;;5076088;28;20356;-67
2021/06/06 07:18:37;;;;;;;24.23;15.53;;;17.20;99.90;;;;;;5075398;28;20271;-67
2021/06/06 07:21:11;;;;;;;22.17;15.40;;;17.40;99.90;;;;;;5079218;28;20409;-67
2021/06/06 07:23:41;;;;;;;20.63;14.40;;;17.50;99.90;;;;;;5082637;28;20184;-67
2021/06/06 07:26:15;;;;;;;19.77;14.97;;;17.60;99.90;;;;;;5077307;28;20203;-65
2021/06/06 07:28:43;;;;;;;22.00;15.83;;;17.70;99.90;;;;;;5080202;28;20180;-67
2021/06/06 07:31:12;;;;;;;21.80;14.70;;;17.60;99.90;;;;;;5080757;28;20192;-67
2021/06/06 07:33:43;;;;;;;21.17;15.07;;;17.70;99.90;;;;;;5081983;28;20180;-67
2021/06/06 07:36:15;;;;;;;19.57;14.97;;;18.00;99.90;;;;;;5081717;28;20223;-67
2021/06/06 07:38:44;;;;;;;17.73;13.83;;;18.00;99.90;;;;;;5082164;28;20328;-67
2021/06/06 07:41:12;;;;;;;21.13;13.27;;;18.10;99.90;;;;;;5080247;28;20184;-67
2021/06/06 07:43:40;;;;;;;21.50;14.53;;;18.30;99.90;;;;;;5060483;28;20196;-67
2021/06/06 07:46:08;;;;;;;21.23;14.50;;;18.50;99.90;;;;;;5080041;28;20176;-68
2021/06/06 07:48:36;;;;;;;21.80;14.63;;;18.70;99.90;;;;;;5070525;28;20180;-67
2021/06/06 07:51:05;;;;;;;21.07;15.67;;;18.50;99.90;;;;;;5071701;28;20184;-67
2021/06/06 07:53:35;;;;;;;20.43;14.80;;;18.50;99.90;;;;;;5078787;28;20376;-68
2021/06/06 07:56:07;;;;;;;17.93;14.17;;;18.70;99.90;;;;;;5075647;28;20196;-67
2021/06/06 07:58:36;;;;;;;18.93;13.83;;;18.70;99.90;;;;;;5079768;28;20176;-68
2021/06/06 08:01:07;;;;;;;16.53;13.77;;;18.90;99.90;;;;;;5083622;28;20171;-67
2021/06/06 08:03:35;;;;;;;19.13;14.13;;;19.20;99.90;;;;;;5082138;28;20219;-67
2021/06/06 08:06:06;;;;;;;14.43;11.90;;;19.50;99.90;;;;;;5072329;28;20518;-67
2021/06/06 08:08:35;;;;;;;23.33;13.17;;;19.50;99.90;;;;;;5086582;28;20230;-68
2021/06/06 08:11:05;;;;;;;16.77;12.60;;;19.50;99.90;;;;;;5077857;28;20188;-68
2021/06/06 08:13:33;;;;;;;17.17;12.07;;;19.70;99.90;;;;;;5080831;28;20322;-68
2021/06/06 08:16:02;;;;;;;14.13;11.53;;;19.80;99.90;;;;;;5074191;28;20271;-68
2021/06/06 08:18:33;;;;;;;15.23;10.93;;;19.80;99.90;;;;;;5082781;28;20425;-68
2021/06/06 08:21:04;;;;;;;13.47;11.20;;;19.90;99.90;;;;;;5068611;28;20212;-68
2021/06/06 08:23:34;;;;;;;14.60;11.80;;;20.20;99.90;;;;;;5086911;28;20375;-68
2021/06/06 08:26:03;;;;;;;13.23;11.83;;;20.30;99.90;;;;;;5070218;28;20192;-68
2021/06/06 08:28:31;;;;;;;16.30;12.20;;;20.40;99.90;;;;;;5072931;28;20604;-68
2021/06/06 08:31:01;;;;;;;15.63;11.73;;;20.40;99.90;;;;;;5074240;28;20185;-67
2021/06/06 08:33:31;;;;;;;12.10;9.80;;;20.60;99.90;;;;;;5068999;28;20178;-69
2021/06/06 08:36:01;;;;;;;13.30;10.70;;;20.50;99.90;;;;;;5071167;28;20438;-67
2021/06/06 08:38:31;;;;;;;13.63;10.70;;;21.00;99.90;;;;;;5079569;28;20221;-68
2021/06/06 08:41:05;;;;;;;11.03;9.87;;;20.90;99.90;;;;;;5078228;28;20276;-69
2021/06/06 08:43:41;;;;;;;12.80;10.77;;;20.60;99.90;;;;;;5079328;28;20183;-68
2021/06/06 08:46:11;;;;;;;12.63;11.33;;;21.00;99.90;;;;;;5061110;28;20182;-69
2021/06/06 08:48:39;;;;;;;11.10;10.00;;;20.90;99.90;;;;;;5063314;28;20197;-68
2021/06/06 08:51:19;;;;;;;13.37;9.90;;;21.00;99.90;;;;;;5075518;28;20187;-68
2021/06/06 08:53:57;;;;;;;12.47;10.30;;;21.50;99.90;;;;;;5068262;28;20208;-69
2021/06/06 08:56:29;;;;;;;9.27;8.43;;;22.00;99.90;;;;;;5082813;28;20218;-68
2021/06/06 08:59:02;;;;;;;10.90;9.37;;;22.20;99.90;;;;;;5080587;28;20184;-68
2021/06/06 09:01:40;;;;;;;11.10;10.00;;;22.40;99.90;;;;;;5074201;28;20334;-69
2021/06/06 09:04:12;;;;;;;11.43;9.53;;;22.60;99.90;;;;;;5078791;28;20196;-69
2021/06/06 09:06:48;;;;;;;16.77;10.70;;;22.80;99.90;;;;;;5079917;28;20201;-69
2021/06/06 09:09:22;;;;;;;10.77;9.55;;;23.00;99.90;;;;;;5054966;28;20186;-68
2021/06/06 09:11:52;;;;;;;11.80;10.32;;;23.20;99.90;;;;;;5067438;28;20218;-69
2021/06/06 09:14:20;;;;;;;12.75;10.38;;;23.50;99.90;;;;;;5081882;28;20189;-69
2021/06/06 09:16:58;;;;;;;12.07;10.18;;;23.50;99.90;;;;;;5063623;28;20209;-69
2021/06/06 09:19:27;;;;;;;12.30;10.38;;;23.60;99.90;;;;;;5085214;28;20185;-69
2021/06/06 09:21:58;;;;;;;10.90;9.80;;;23.50;99.90;;;;;;5084835;28;20178;-69
2021/06/06 09:24:37;;;;;;;12.80;10.70;;;23.30;99.90;;;;;;5084967;28;20180;-69
2021/06/06 09:27:16;;;;;;;10.48;9.32;;;23.90;99.90;;;;;;5056583;28;20208;-69
2021/06/06 09:29:45;;;;;;;12.00;10.80;;;24.00;99.90;;;;;;5082501;28;20205;-69
2021/06/06 09:32:19;;;;;;;10.43;9.32;;;23.90;99.90;;;;;;5079955;28;20186;-69
2021/06/06 09:34:54;;;;;;;11.90;9.93;;;23.70;99.90;;;;;;5082644;28;20246;-69
2021/06/06 09:37:25;;;;;;;10.10;8.85;;;23.80;99.90;;;;;;5081229;28;20223;-69
2021/06/06 09:40:00;;;;;;;10.45;9.30;;;23.70;99.90;;;;;;5084030;28;20181;-68
2021/06/06 09:42:36;;;;;;;10.48;9.38;;;23.80;99.90;;;;;;5077897;28;20228;-69
2021/06/06 09:45:09;;;;;;;11.30;8.85;;;23.60;99.90;;;;;;5077016;28;20272;-69
2021/06/06 09:47:38;;;;;;;9.00;7.78;;;24.00;99.90;;;;;;5080748;28;20197;-69
2021/06/06 09:50:17;;;;;;;7.05;6.45;;;23.80;99.90;;;;;;5061344;28;20186;-69
2021/06/06 09:52:46;;;;;;;7.13;6.43;;;23.90;99.90;;;;;;5083896;28;20182;-69
2021/06/06 09:55:20;;;;;;;9.55;7.85;;;24.10;99.90;;;;;;5081864;28;20219;-69
2021/06/06 09:57:52;;;;;;;9.18;8.13;;;24.40;99.90;;;;;;5081077;28;20208;-69
2021/06/06 10:00:29;;;;;;;9.68;8.68;;;24.50;99.90;;;;;;5081769;28;20245;-69
2021/06/06 10:03:00;;;;;;;7.10;6.40;;;24.60;99.90;;;;;;5081717;28;20821;-68
2021/06/06 10:05:31;;;;;;;8.18;7.47;;;24.80;99.90;;;;;;5081686;28;20248;-70
2021/06/06 10:08:02;;;;;;;8.07;7.00;;;25.30;99.90;;;;;;5082237;28;20185;-69
2021/06/06 10:10:36;;;;;;;8.70;7.90;;;25.20;99.90;;;;;;5080427;28;20543;-68
2021/06/06 10:13:09;;;;;;;8.18;7.38;;;25.10;99.90;;;;;;5064605;28;20197;-68
2021/06/06 10:15:45;;;;;;;11.15;9.52;;;25.10;99.90;;;;;;5080921;28;20313;-69
2021/06/06 10:18:17;;;;;;;12.80;9.18;;;25.20;99.90;;;;;;5081323;28;20232;-69
2021/06/06 10:20:48;;;;;;;9.52;8.52;;;25.30;99.90;;;;;;5083724;28;20190;-69
2021/06/06 10:23:21;;;;;;;9.70;8.73;;;25.70;99.90;;;;;;5074439;28;20179;-69
2021/06/06 10:25:54;;;;;;;8.57;7.75;;;25.20;99.90;;;;;;5063848;28;20204;-68
2021/06/06 10:28:29;;;;;;;8.25;6.95;;;25.50;99.90;;;;;;5080080;28;20199;-70
2021/06/06 10:31:04;;;;;;;7.57;6.85;;;25.70;99.90;;;;;;5070644;28;20212;-67
2021/06/06 10:33:37;;;;;;;7.57;6.93;;;26.00;99.90;;;;;;5076464;28;20258;-69
2021/06/06 10:36:06;;;;;;;6.88;6.28;;;26.10;99.90;;;;;;5063887;28;20229;-69
2021/06/06 10:38:37;;;;;;;6.65;6.05;;;26.00;99.90;;;;;;5076228;28;20233;-69
2021/06/06 10:41:12;;;;;;;8.27;7.50;;;26.10;99.90;;;;;;5078675;28;20185;-69
2021/06/06 10:43:49;;;;;;;10.13;7.82;;;26.30;99.90;;;;;;5081232;28;20183;-69
2021/06/06 10:46:24;;;;;;;7.75;7.07;;;26.20;99.90;;;;;;5083053;28;20193;-69
2021/06/06 10:49:00;;;;;;;8.18;7.40;;;25.90;99.90;;;;;;5069590;28;20195;-69
2021/06/06 10:51:33;;;;;;;7.32;6.72;;;25.90;99.90;;;;;;5082193;28;20230;-70
2021/06/06 10:54:05;;;;;;;7.38;6.78;;;26.20;99.90;;;;;;5078749;28;20224;-69
2021/06/06 10:56:41;;;;;;;7.88;7.05;;;26.60;99.90;;;;;;5078287;28;20190;-69
2021/06/06 10:59:11;;;;;;;8.40;7.22;;;26.60;99.90;;;;;;5078665;28;20209;-69
2021/06/06 11:01:52;;;;;;;8.25;7.55;;;26.60;99.90;;;;;;5078013;28;20241;-69
2021/06/06 11:04:23;;;;;;;10.65;8.25;;;26.70;99.90;;;;;;5078650;28;20200;-69
2021/06/06 11:07:04;;;;;;;8.57;7.78;;;26.50;99.90;;;;;;5081742;28;20179;-69
2021/06/06 11:09:34;;;;;;;9.52;7.38;;;26.20;99.90;;;;;;5077089;28;20182;-69
2021/06/06 11:12:08;;;;;;;5.63;5.22;;;25.90;99.90;;;;;;5062592;28;20181;-69
2021/06/06 11:14:46;;;;;;;8.38;5.75;;;25.80;99.20;;;;;;5080584;28;20175;-69
2021/06/06 11:17:29;;;;;;;7.63;6.72;;;25.80;99.90;;;;;;5076761;28;20223;-68
2021/06/06 11:20:09;;;;;;;7.10;6.32;;;25.60;99.90;;;;;;5080305;28;20184;-69
2021/06/06 11:22:40;;;;;;;6.57;6.00;;;25.80;98.70;;;;;;5082158;28;20182;-70
2021/06/06 11:25:27;;;;;;;4.03;3.83;;;25.80;98.80;;;;;;5078094;28;20190;-69
2021/06/06 11:28:00;;;;;;;3.60;3.50;;;25.60;97.20;;;;;;5079188;28;20173;-69
2021/06/06 11:30:37;;;;;;;3.50;3.30;;;25.50;99.10;;;;;;5077154;28;20376;-69
2021/06/06 11:33:08;;;;;;;2.53;2.50;;;25.40;98.40;;;;;;5077543;28;20192;-69
2021/06/06 11:35:49;;;;;;;4.00;3.60;;;25.50;96.00;;;;;;5078591;28;20172;-69
2021/06/06 11:38:42;;;;;;;4.47;4.17;;;25.50;98.80;;;;;;5057584;28;20421;-69
2021/06/06 11:41:37;;;;;;;2.57;2.53;;;25.50;98.20;;;;;;5063846;28;20192;-69
2021/06/06 11:44:21;;;;;;;2.70;2.60;;;25.50;99.00;;;;;;5071593;28;20468;-68
2021/06/06 11:46:56;;;;;;;2.50;2.30;;;25.50;96.20;;;;;;5078835;28;20184;-68
2021/06/06 11:49:52;;;;;;;2.60;2.47;;;25.40;96.20;;;;;;5079326;28;20208;-69
2021/06/06 11:52:26;;;;;;;3.20;3.00;;;25.10;96.90;;;;;;5075266;28;20208;-68
2021/06/06 11:54:57;;;;;;;3.73;3.53;;;24.90;98.20;;;;;;5078437;28;20257;-69
2021/06/06 11:57:30;;;;;;;3.23;3.03;;;24.90;97.60;;;;;;5078868;28;20211;-69
2021/06/06 12:00:05;;;;;;;3.30;3.00;;;24.80;97.30;;;;;;5080975;28;20186;-69
2021/06/06 12:02:37;;;;;;;3.70;3.03;;;24.70;99.70;;;;;;5060954;28;20253;-68
2021/06/06 12:05:21;;;;;;;3.20;2.60;;;24.70;99.00;;;;;;5076314;28;20232;-68
2021/06/06 12:07:50;;;;;;;3.07;2.67;;;24.70;99.90;;;;;;5076264;28;20186;-69
2021/06/06 12:10:30;;;;;;;2.50;2.40;;;24.80;99.90;;;;;;5076915;28;20230;-68
2021/06/06 12:13:02;;;;;;;2.50;2.30;;;24.90;96.80;;;;;;5076718;28;20181;-68
2021/06/06 12:15:32;;;;;;;2.60;2.40;;;24.70;99.90;;;;;;5078677;28;20193;-68
2021/06/06 12:18:09;;;;;;;2.20;2.10;;;24.50;99.20;;;;;;5081598;28;20209;-68
2021/06/06 12:20:49;;;;;;;2.63;2.37;;;24.50;97.30;;;;;;5079257;28;20185;-69
2021/06/06 12:23:17;;;;;;;5.47;3.20;;;24.40;99.90;;;;;;5081167;28;20235;-69
2021/06/06 12:25:45;;;;;;;2.20;2.10;;;24.30;99.90;;;;;;5071999;28;20187;-69
2021/06/06 12:28:18;;;;;;;2.20;2.10;;;24.20;99.50;;;;;;5079052;28;20503;-69
2021/06/06 12:31:00;;;;;;;2.13;2.03;;;24.20;99.00;;;;;;5082200;28;20249;-69
2021/06/06 12:33:36;;;;;;;1.60;1.50;;;24.20;98.90;;;;;;5077772;28;20192;-69
2021/06/06 12:36:11;;;;;;;1.77;1.67;;;24.20;99.90;;;;;;5072002;28;20204;-69
2021/06/06 12:38:39;;;;;;;1.60;1.60;;;24.20;97.90;;;;;;5070032;28;20212;-70
2021/06/06 12:41:09;;;;;;;2.00;1.83;;;24.20;99.80;;;;;;5078349;28;20174;-68
2021/06/06 12:43:41;;;;;;;1.67;1.67;;;24.20;99.90;;;;;;5082734;28;20473;-70
2021/06/06 12:46:11;;;;;;;1.73;1.73;;;24.20;98.30;;;;;;5077801;28;20191;-70
2021/06/06 12:48:54;;;;;;;1.90;1.80;;;24.20;96.20;;;;;;5079517;28;20220;-70
2021/06/06 12:51:26;;;;;;;2.00;1.90;;;24.10;96.90;;;;;;5081876;28;20176;-70
2021/06/06 12:54:03;;;;;;;2.40;2.20;;;24.00;96.50;;;;;;5086841;28;20361;-70
2021/06/06 12:56:31;;;;;;;1.70;1.60;;;23.80;98.30;;;;;;5081850;28;20328;-70